sensor_id;sensor_type;location;lat;lon;timestamp;temperature;humidity
5881;DHT22;2966;52.598;10.928;2022-10-20T00:00:51;5.70;99.90
5881;DHT22;2966;52.598;10.928;2022-10-20T00:03:18;5.70;99.90
5881;DHT22;2966;52.598;10.928;2022-10-20T00:05:45;5.70;99.90
5881;DHT22;2966;52.598;10.928;2022-10-20T00:08:12;5.70;99.90
5881;DHT22;2966;52.598;10.928;2022-10-20T00:10:41;5.80;99.90
5881;DHT22;2966;52.598;10.928;2022-10-20T00:13:08;5.70;99.90
5881;DHT22;2966;52.598;10.928;2022-10-20T00:15:34;5.70;99.90
5881;DHT22;2966;52.598;10.928;2022-10-20T00:18:01;5.70;99.90
5881;DHT22;2966;52.598;10.928;2022-10-20T00:20:28;5.80;99.90
5881;DHT22;2966;52.598;10.928;2022-10-20T00:22:55;5.70;99.90
5881;DHT22;2966;52.598;10.928;2022-10-20T00:25:22;5.70;99.90
5881;DHT22;2966;52.598;10.928;2022-10-20T00:27:50;5.70;99.90
5881;DHT22;2966;52.598;10.928;2022-10-20T00:30:17;5.70;99.90
5881;DHT22;2966;52.598;10.928;2022-10-20T00:32:46;5.70;99.90
5881;DHT22;2966;52.598;10.928;2022-10-20T00:35:13;5.70;99.90
5881;DHT22;2966;52.598;10.928;2022-10-20T00:37:39;5.70;99.90
5881;DHT22;2966;52.598;10.928;2022-10-20T00:40:07;5.60;99.90
5881;DHT22;2966;52.598;10.928;2022-10-20T00:42:34;5.70;99.90
5881;DHT22;2966;52.598;10.928;2022-10-20T00:45:03;5.60;99.90
5881;DHT22;2966;52.598;10.928;2022-10-20T00:47:41;5.70;99.90
5881;DHT22;2966;52.598;10.928;2022-10-20T00:50:13;5.70;99.90
5881;DHT22;2966;52.598;10.928;2022-10-20T00:52:42;5.60;99.90
5881;DHT22;2966;52.598;10.928;2022-10-20T00:55:16;5.60;99.90
5881;DHT22;2966;52.598;10.928;2022-10-20T00:57:46;5.60;99.90
5881;DHT22;2966;52.598;10.928;2022-10-20T01:00:16;5.60;99.90
5881;DHT22;2966;52.598;10.928;2022-10-20T01:02:43;5.60;99.90
5881;DHT22;2966;52.598;10.928;2022-10-20T01:05:10;5.60;99.90
5881;DHT22;2966;52.598;10.928;2022-10-20T01:07:37;5.60;99.90
5881;DHT22;2966;52.598;10.928;2022-10-20T01:10:05;5.60;99.90
5881;DHT22;2966;52.598;10.928;2022-10-20T01:12:37;5.50;99.90
5881;DHT22;2966;52.598;10.928;2022-10-20T01:15:09;5.50;99.90
5881;DHT22;2966;52.598;10.928;2022-10-20T01:17:45;5.50;99.90
5881;DHT22;2966;52.598;10.928;2022-10-20T01:20:55;5.50;99.90
5881;DHT22;2966;52.598;10.928;2022-10-20T01:24:00;5.50;99.90
5881;DHT22;2966;52.598;10.928;2022-10-20T01:26:53;5.60;99.90
5881;DHT22;2966;52.598;10.928;2022-10-20T01:29:27;5.50;99.90
5881;DHT22;2966;52.598;10.928;2022-10-20T01:32:06;5.60;99.90
5881;DHT22;2966;52.598;10.928;2022-10-20T01:34:42;5.60;99.90
5881;DHT22;2966;52.598;10.928;2022-10-20T01:37:18;5.50;99.90
5881;DHT22;2966;52.598;10.928;2022-10-20T01:39:49;5.50;99.90
5881;DHT22;2966;52.598;10.928;2022-10-20T01:42:21;5.50;99.90
5881;DHT22;2966;52.598;10.928;2022-10-20T01:44:51;5.50;99.90
5881;DHT22;2966;52.598;10.928;2022-10-20T01:47:20;5.60;99.90
5881;DHT22;2966;52.598;10.928;2022-10-20T01:49:48;5.50;99.90
5881;DHT22;2966;52.598;10.928;2022-10-20T01:52:15;5.60;99.90
5881;DHT22;2966;52.598;10.928;2022-10-20T01:54:43;5.60;99.90
5881;DHT22;2966;52.598;10.928;2022-10-20T01:57:18;5.50;99.90
5881;DHT22;2966;52.598;10.928;2022-10-20T02:00:02;5.50;99.90
5881;DHT22;2966;52.598;10.928;2022-10-20T02:05:52;5.50;99.90
5881;DHT22;2966;52.598;10.928;2022-10-20T02:08:36;5.50;99.90
5881;DHT22;2966;52.598;10.928;2022-10-20T02:11:07;5.50;99.90
5881;DHT22;2966;52.598;10.928;2022-10-20T02:13:37;5.50;99.90
5881;DHT22;2966;52.598;10.928;2022-10-20T02:16:12;5.50;99.90
5881;DHT22;2966;52.598;10.928;2022-10-20T02:18:41;5.50;99.90
5881;DHT22;2966;52.598;10.928;2022-10-20T02:21:09;5.50;99.90
5881;DHT22;2966;52.598;10.928;2022-10-20T02:23:38;5.50;99.90
5881;DHT22;2966;52.598;10.928;2022-10-20T02:26:09;5.50;99.90
5881;DHT22;2966;52.598;10.928;2022-10-20T02:28:40;5.50;99.90
5881;DHT22;2966;52.598;10.928;2022-10-20T02:31:10;5.50;99.90
5881;DHT22;2966;52.598;10.928;2022-10-20T02:33:37;5.50;99.90
5881;DHT22;2966;52.598;10.928;2022-10-20T02:36:06;5.50;99.90
5881;DHT22;2966;52.598;10.928;2022-10-20T02:38:40;5.40;99.90
5881;DHT22;2966;52.598;10.928;2022-10-20T02:41:07;5.40;99.90
5881;DHT22;2966;52.598;10.928;2022-10-20T02:43:33;5.40;99.90
5881;DHT22;2966;52.598;10.928;2022-10-20T02:46:00;5.40;99.90
5881;DHT22;2966;52.598;10.928;2022-10-20T02:48:28;5.40;99.90
5881;DHT22;2966;52.598;10.928;2022-10-20T02:50:56;5.40;99.90
5881;DHT22;2966;52.598;10.928;2022-10-20T02:53:23;5.30;99.90
5881;DHT22;2966;52.598;10.928;2022-10-20T02:55:50;5.30;99.90
5881;DHT22;2966;52.598;10.928;2022-10-20T02:58:17;5.30;99.90
5881;DHT22;2966;52.598;10.928;2022-10-20T03:00:43;5.30;99.90
5881;DHT22;2966;52.598;10.928;2022-10-20T03:03:10;5.30;99.90
5881;DHT22;2966;52.598;10.928;2022-10-20T03:05:40;5.30;99.90
5881;DHT22;2966;52.598;10.928;2022-10-20T03:08:08;5.30;99.90
5881;DHT22;2966;52.598;10.928;2022-10-20T03:10:35;5.30;99.90
5881;DHT22;2966;52.598;10.928;2022-10-20T03:13:03;5.30;99.90
5881;DHT22;2966;52.598;10.928;2022-10-20T03:15:30;5.30;99.90
5881;DHT22;2966;52.598;10.928;2022-10-20T03:17:57;5.30;99.90
5881;DHT22;2966;52.598;10.928;2022-10-20T03:20:24;5.30;99.90
5881;DHT22;2966;52.598;10.928;2022-10-20T03:22:52;5.30;99.90
5881;DHT22;2966;52.598;10.928;2022-10-20T03:25:22;5.30;99.90
5881;DHT22;2966;52.598;10.928;2022-10-20T03:27:49;5.30;99.90
5881;DHT22;2966;52.598;10.928;2022-10-20T03:30:16;5.30;99.90
5881;DHT22;2966;52.598;10.928;2022-10-20T03:32:43;5.30;99.90
5881;DHT22;2966;52.598;10.928;2022-10-20T03:35:10;5.20;99.90
5881;DHT22;2966;52.598;10.928;2022-10-20T03:37:37;5.20;99.90
5881;DHT22;2966;52.598;10.928;2022-10-20T03:40:06;5.20;99.90
5881;DHT22;2966;52.598;10.928;2022-10-20T03:42:33;5.10;99.90
5881;DHT22;2966;52.598;10.928;2022-10-20T03:45:00;5.10;99.90
5881;DHT22;2966;52.598;10.928;2022-10-20T03:47:27;5.10;99.90
5881;DHT22;2966;52.598;10.928;2022-10-20T03:49:54;5.00;99.90
5881;DHT22;2966;52.598;10.928;2022-10-20T03:52:24;5.00;99.90
5881;DHT22;2966;52.598;10.928;2022-10-20T03:54:51;5.10;99.90
5881;DHT22;2966;52.598;10.928;2022-10-20T03:57:19;5.00;99.90
5881;DHT22;2966;52.598;10.928;2022-10-20T03:59:46;5.00;99.90
5881;DHT22;2966;52.598;10.928;2022-10-20T04:02:24;5.00;99.90
5881;DHT22;2966;52.598;10.928;2022-10-20T04:04:54;5.00;99.90
5881;DHT22;2966;52.598;10.928;2022-10-20T04:07:21;5.00;99.90
5881;DHT22;2966;52.598;10.928;2022-10-20T04:09:47;5.00;99.90
5881;DHT22;2966;52.598;10.928;2022-10-20T04:12:14;4.90;99.90
5881;DHT22;2966;52.598;10.928;2022-10-20T04:14:42;4.90;99.90
5881;DHT22;2966;52.598;10.928;2022-10-20T04:17:09;4.90;99.90
5881;DHT22;2966;52.598;10.928;2022-10-20T04:19:36;4.90;99.90
5881;DHT22;2966;52.598;10.928;2022-10-20T04:22:03;4.90;99.90
5881;DHT22;2966;52.598;10.928;2022-10-20T04:24:30;4.90;99.90
5881;DHT22;2966;52.598;10.928;2022-10-20T04:26:57;4.90;99.90
5881;DHT22;2966;52.598;10.928;2022-10-20T04:29:24;4.90;99.90
5881;DHT22;2966;52.598;10.928;2022-10-20T04:31:52;4.80;99.90
5881;DHT22;2966;52.598;10.928;2022-10-20T04:34:19;4.80;99.90
5881;DHT22;2966;52.598;10.928;2022-10-20T04:36:45;4.80;99.90
5881;DHT22;2966;52.598;10.928;2022-10-20T04:39:13;4.80;99.90
5881;DHT22;2966;52.598;10.928;2022-10-20T04:41:40;4.80;99.90
5881;DHT22;2966;52.598;10.928;2022-10-20T04:44:07;4.80;99.90
5881;DHT22;2966;52.598;10.928;2022-10-20T04:46:34;4.80;99.90
5881;DHT22;2966;52.598;10.928;2022-10-20T04:49:02;4.80;99.90
5881;DHT22;2966;52.598;10.928;2022-10-20T04:51:29;4.80;99.90
5881;DHT22;2966;52.598;10.928;2022-10-20T04:53:59;4.80;99.90
5881;DHT22;2966;52.598;10.928;2022-10-20T04:56:26;4.80;99.90
5881;DHT22;2966;52.598;10.928;2022-10-20T04:58:54;4.80;99.90
5881;DHT22;2966;52.598;10.928;2022-10-20T05:01:23;4.80;99.90
5881;DHT22;2966;52.598;10.928;2022-10-20T05:03:50;4.80;99.90
5881;DHT22;2966;52.598;10.928;2022-10-20T05:06:20;4.80;99.90
5881;DHT22;2966;52.598;10.928;2022-10-20T05:08:50;4.80;99.90
5881;DHT22;2966;52.598;10.928;2022-10-20T05:11:18;4.80;99.90
5881;DHT22;2966;52.598;10.928;2022-10-20T05:13:46;4.80;99.90
5881;DHT22;2966;52.598;10.928;2022-10-20T05:16:13;4.80;99.90
5881;DHT22;2966;52.598;10.928;2022-10-20T05:18:42;4.80;99.90
5881;DHT22;2966;52.598;10.928;2022-10-20T05:21:11;4.80;99.90
5881;DHT22;2966;52.598;10.928;2022-10-20T05:23:39;4.80;99.90
5881;DHT22;2966;52.598;10.928;2022-10-20T05:26:08;4.80;99.90
5881;DHT22;2966;52.598;10.928;2022-10-20T05:28:34;4.90;99.90
5881;DHT22;2966;52.598;10.928;2022-10-20T05:31:02;4.90;99.90
5881;DHT22;2966;52.598;10.928;2022-10-20T05:33:29;4.90;99.90
5881;DHT22;2966;52.598;10.928;2022-10-20T05:35:56;4.90;99.90
5881;DHT22;2966;52.598;10.928;2022-10-20T05:38:23;4.90;99.90
5881;DHT22;2966;52.598;10.928;2022-10-20T05:40:51;4.90;99.90
5881;DHT22;2966;52.598;10.928;2022-10-20T05:43:18;5.00;99.90
5881;DHT22;2966;52.598;10.928;2022-10-20T05:45:45;5.00;99.90
5881;DHT22;2966;52.598;10.928;2022-10-20T05:48:11;5.00;99.90
5881;DHT22;2966;52.598;10.928;2022-10-20T05:50:38;5.00;99.90
5881;DHT22;2966;52.598;10.928;2022-10-20T05:53:05;5.10;99.90
5881;DHT22;2966;52.598;10.928;2022-10-20T05:55:32;5.10;99.90
5881;DHT22;2966;52.598;10.928;2022-10-20T05:58:02;5.10;99.90
5881;DHT22;2966;52.598;10.928;2022-10-20T06:00:29;5.10;99.90
5881;DHT22;2966;52.598;10.928;2022-10-20T06:03:05;5.10;99.90
5881;DHT22;2966;52.598;10.928;2022-10-20T06:05:32;5.10;99.90
5881;DHT22;2966;52.598;10.928;2022-10-20T06:07:59;5.10;99.90
5881;DHT22;2966;52.598;10.928;2022-10-20T06:10:26;5.20;99.90
5881;DHT22;2966;52.598;10.928;2022-10-20T06:12:53;5.20;99.90
5881;DHT22;2966;52.598;10.928;2022-10-20T06:15:21;5.20;99.90
5881;DHT22;2966;52.598;10.928;2022-10-20T06:17:48;5.30;99.90
5881;DHT22;2966;52.598;10.928;2022-10-20T06:20:15;5.40;99.90
5881;DHT22;2966;52.598;10.928;2022-10-20T06:22:42;5.40;99.90
5881;DHT22;2966;52.598;10.928;2022-10-20T06:25:08;5.40;99.90
5881;DHT22;2966;52.598;10.928;2022-10-20T06:27:35;5.50;99.90
5881;DHT22;2966;52.598;10.928;2022-10-20T06:30:02;5.50;99.90
5881;DHT22;2966;52.598;10.928;2022-10-20T06:32:31;5.50;99.90
5881;DHT22;2966;52.598;10.928;2022-10-20T06:34:58;5.60;99.90
5881;DHT22;2966;52.598;10.928;2022-10-20T06:37:24;5.60;99.90
5881;DHT22;2966;52.598;10.928;2022-10-20T06:39:51;5.60;99.90
5881;DHT22;2966;52.598;10.928;2022-10-20T06:42:18;5.70;99.90
5881;DHT22;2966;52.598;10.928;2022-10-20T06:44:45;5.70;99.90
5881;DHT22;2966;52.598;10.928;2022-10-20T06:47:11;5.80;99.90
5881;DHT22;2966;52.598;10.928;2022-10-20T06:49:40;5.90;99.90
5881;DHT22;2966;52.598;10.928;2022-10-20T06:52:06;5.90;99.90
5881;DHT22;2966;52.598;10.928;2022-10-20T06:54:33;6.00;99.90
5881;DHT22;2966;52.598;10.928;2022-10-20T06:57:00;6.00;99.90
5881;DHT22;2966;52.598;10.928;2022-10-20T06:59:29;6.10;99.90
5881;DHT22;2966;52.598;10.928;2022-10-20T07:01:56;6.10;99.90
5881;DHT22;2966;52.598;10.928;2022-10-20T07:04:23;6.20;99.90
5881;DHT22;2966;52.598;10.928;2022-10-20T07:06:51;6.20;99.90
5881;DHT22;2966;52.598;10.928;2022-10-20T07:09:18;6.20;99.90
5881;DHT22;2966;52.598;10.928;2022-10-20T07:11:49;6.30;99.90
5881;DHT22;2966;52.598;10.928;2022-10-20T07:14:16;6.40;99.90
5881;DHT22;2966;52.598;10.928;2022-10-20T07:16:43;6.50;99.90
5881;DHT22;2966;52.598;10.928;2022-10-20T07:19:10;6.60;99.90
5881;DHT22;2966;52.598;10.928;2022-10-20T07:21:37;6.60;99.90
5881;DHT22;2966;52.598;10.928;2022-10-20T07:24:06;6.60;99.90
5881;DHT22;2966;52.598;10.928;2022-10-20T07:26:35;6.70;99.90
5881;DHT22;2966;52.598;10.928;2022-10-20T07:29:03;6.80;99.90
5881;DHT22;2966;52.598;10.928;2022-10-20T07:31:31;6.90;99.90
5881;DHT22;2966;52.598;10.928;2022-10-20T07:33:59;6.90;99.90
5881;DHT22;2966;52.598;10.928;2022-10-20T07:36:28;6.90;99.90
5881;DHT22;2966;52.598;10.928;2022-10-20T07:38:57;6.90;99.90
5881;DHT22;2966;52.598;10.928;2022-10-20T07:41:26;7.00;99.90
5881;DHT22;2966;52.598;10.928;2022-10-20T07:43:56;7.00;99.90
5881;DHT22;2966;52.598;10.928;2022-10-20T07:46:23;7.00;99.90
5881;DHT22;2966;52.598;10.928;2022-10-20T07:48:53;7.00;99.90
5881;DHT22;2966;52.598;10.928;2022-10-20T07:51:29;7.00;99.90
5881;DHT22;2966;52.598;10.928;2022-10-20T07:53:58;7.10;99.90
5881;DHT22;2966;52.598;10.928;2022-10-20T07:56:29;7.10;99.90
5881;DHT22;2966;52.598;10.928;2022-10-20T07:58:57;7.10;99.90
5881;DHT22;2966;52.598;10.928;2022-10-20T08:01:24;7.20;99.90
5881;DHT22;2966;52.598;10.928;2022-10-20T08:03:51;7.20;99.90
5881;DHT22;2966;52.598;10.928;2022-10-20T08:06:18;7.20;99.90
5881;DHT22;2966;52.598;10.928;2022-10-20T08:08:45;7.30;99.90
5881;DHT22;2966;52.598;10.928;2022-10-20T08:11:12;7.30;99.90
5881;DHT22;2966;52.598;10.928;2022-10-20T08:13:40;7.30;99.90
5881;DHT22;2966;52.598;10.928;2022-10-20T08:16:08;7.40;99.90
5881;DHT22;2966;52.598;10.928;2022-10-20T08:18:35;7.40;99.90
5881;DHT22;2966;52.598;10.928;2022-10-20T08:21:07;7.50;99.90
5881;DHT22;2966;52.598;10.928;2022-10-20T08:23:36;7.50;99.90
5881;DHT22;2966;52.598;10.928;2022-10-20T08:26:05;7.60;99.90
5881;DHT22;2966;52.598;10.928;2022-10-20T08:28:32;7.60;99.90
5881;DHT22;2966;52.598;10.928;2022-10-20T08:31:02;7.60;99.90
5881;DHT22;2966;52.598;10.928;2022-10-20T08:33:29;7.70;99.90
5881;DHT22;2966;52.598;10.928;2022-10-20T08:36:00;7.70;99.90
5881;DHT22;2966;52.598;10.928;2022-10-20T08:38:28;7.80;99.90
5881;DHT22;2966;52.598;10.928;2022-10-20T08:40:55;7.70;99.90
5881;DHT22;2966;52.598;10.928;2022-10-20T08:43:22;7.70;99.90
5881;DHT22;2966;52.598;10.928;2022-10-20T08:45:49;7.80;99.90
5881;DHT22;2966;52.598;10.928;2022-10-20T08:48:20;7.90;99.90
5881;DHT22;2966;52.598;10.928;2022-10-20T08:50:49;8.00;99.90
5881;DHT22;2966;52.598;10.928;2022-10-20T08:53:18;8.10;99.90
5881;DHT22;2966;52.598;10.928;2022-10-20T08:55:46;8.20;99.90
5881;DHT22;2966;52.598;10.928;2022-10-20T08:58:16;8.30;99.90
5881;DHT22;2966;52.598;10.928;2022-10-20T09:00:44;8.40;99.90
5881;DHT22;2966;52.598;10.928;2022-10-20T09:03:17;8.40;99.90
5881;DHT22;2966;52.598;10.928;2022-10-20T09:05:49;8.60;99.90
5881;DHT22;2966;52.598;10.928;2022-10-20T09:08:27;8.60;99.90
5881;DHT22;2966;52.598;10.928;2022-10-20T09:10:54;8.60;99.90
5881;DHT22;2966;52.598;10.928;2022-10-20T09:13:23;8.80;99.90
5881;DHT22;2966;52.598;10.928;2022-10-20T09:15:56;8.80;99.90
5881;DHT22;2966;52.598;10.928;2022-10-20T09:18:26;8.90;99.90
5881;DHT22;2966;52.598;10.928;2022-10-20T09:20:56;8.90;99.90
5881;DHT22;2966;52.598;10.928;2022-10-20T09:23:29;8.80;99.90
5881;DHT22;2966;52.598;10.928;2022-10-20T09:25:57;8.90;99.90
5881;DHT22;2966;52.598;10.928;2022-10-20T09:28:26;9.00;99.90
5881;DHT22;2966;52.598;10.928;2022-10-20T09:30:54;9.10;99.90
5881;DHT22;2966;52.598;10.928;2022-10-20T09:33:28;9.20;99.90
5881;DHT22;2966;52.598;10.928;2022-10-20T09:36:03;9.30;99.90
5881;DHT22;2966;52.598;10.928;2022-10-20T09:38:33;9.40;99.90
5881;DHT22;2966;52.598;10.928;2022-10-20T09:41:08;9.40;99.90
5881;DHT22;2966;52.598;10.928;2022-10-20T09:43:38;9.50;99.90
5881;DHT22;2966;52.598;10.928;2022-10-20T09:46:07;9.50;99.90
5881;DHT22;2966;52.598;10.928;2022-10-20T09:48:41;9.50;99.90
5881;DHT22;2966;52.598;10.928;2022-10-20T09:51:14;9.50;99.90
5881;DHT22;2966;52.598;10.928;2022-10-20T09:53:49;9.60;99.90
5881;DHT22;2966;52.598;10.928;2022-10-20T09:56:28;9.70;99.90
5881;DHT22;2966;52.598;10.928;2022-10-20T09:58:56;9.80;99.90
5881;DHT22;2966;52.598;10.928;2022-10-20T10:01:24;9.90;99.90
5881;DHT22;2966;52.598;10.928;2022-10-20T10:03:54;9.90;99.90
5881;DHT22;2966;52.598;10.928;2022-10-20T10:06:30;10.00;99.90
5881;DHT22;2966;52.598;10.928;2022-10-20T10:08:59;9.90;99.90
5881;DHT22;2966;52.598;10.928;2022-10-20T10:11:32;10.00;99.90
5881;DHT22;2966;52.598;10.928;2022-10-20T10:14:00;10.00;99.90
5881;DHT22;2966;52.598;10.928;2022-10-20T10:16:37;10.00;99.90
5881;DHT22;2966;52.598;10.928;2022-10-20T10:19:07;10.10;99.90
5881;DHT22;2966;52.598;10.928;2022-10-20T10:21:46;10.10;99.90
5881;DHT22;2966;52.598;10.928;2022-10-20T10:24:35;10.20;99.90
5881;DHT22;2966;52.598;10.928;2022-10-20T10:27:03;10.30;99.90
5881;DHT22;2966;52.598;10.928;2022-10-20T10:29:33;10.40;99.90
5881;DHT22;2966;52.598;10.928;2022-10-20T10:32:02;10.60;99.90
5881;DHT22;2966;52.598;10.928;2022-10-20T10:37:36;10.60;99.90
5881;DHT22;2966;52.598;10.928;2022-10-20T10:40:12;10.60;99.90
5881;DHT22;2966;52.598;10.928;2022-10-20T10:42:47;10.70;99.90
5881;DHT22;2966;52.598;10.928;2022-10-20T10:45:23;10.70;99.90
5881;DHT22;2966;52.598;10.928;2022-10-20T10:48:15;10.70;99.90
5881;DHT22;2966;52.598;10.928;2022-10-20T10:50:46;10.80;99.90
5881;DHT22;2966;52.598;10.928;2022-10-20T10:53:26;10.80;99.90
5881;DHT22;2966;52.598;10.928;2022-10-20T10:56:07;10.80;99.90
5881;DHT22;2966;52.598;10.928;2022-10-20T10:58:44;10.80;99.90
5881;DHT22;2966;52.598;10.928;2022-10-20T11:02:01;11.00;99.90
5881;DHT22;2966;52.598;10.928;2022-10-20T11:07:43;11.10;99.90
5881;DHT22;2966;52.598;10.928;2022-10-20T11:10:21;11.20;99.90
5881;DHT22;2966;52.598;10.928;2022-10-20T11:13:05;11.30;99.90
5881;DHT22;2966;52.598;10.928;2022-10-20T11:15:46;11.40;99.90
5881;DHT22;2966;52.598;10.928;2022-10-20T11:18:35;11.50;99.90
5881;DHT22;2966;52.598;10.928;2022-10-20T11:21:17;11.50;99.90
5881;DHT22;2966;52.598;10.928;2022-10-20T11:24:05;11.50;99.90
5881;DHT22;2966;52.598;10.928;2022-10-20T11:26:39;11.60;99.90
5881;DHT22;2966;52.598;10.928;2022-10-20T11:29:11;11.50;99.90
5881;DHT22;2966;52.598;10.928;2022-10-20T11:31:45;11.50;99.90
5881;DHT22;2966;52.598;10.928;2022-10-20T11:34:17;11.60;99.90
5881;DHT22;2966;52.598;10.928;2022-10-20T11:36:50;11.60;99.90
5881;DHT22;2966;52.598;10.928;2022-10-20T11:39:25;11.50;99.90
5881;DHT22;2966;52.598;10.928;2022-10-20T11:41:58;11.60;99.90
5881;DHT22;2966;52.598;10.928;2022-10-20T11:44:29;11.70;99.90
5881;DHT22;2966;52.598;10.928;2022-10-20T11:47:00;11.60;99.90
5881;DHT22;2966;52.598;10.928;2022-10-20T11:49:30;11.50;99.90
5881;DHT22;2966;52.598;10.928;2022-10-20T11:52:32;11.50;99.90
5881;DHT22;2966;52.598;10.928;2022-10-20T11:55:31;11.50;99.90
5881;DHT22;2966;52.598;10.928;2022-10-20T11:58:14;11.40;99.90
5881;DHT22;2966;52.598;10.928;2022-10-20T12:00:55;11.40;99.90
5881;DHT22;2966;52.598;10.928;2022-10-20T12:03:57;11.30;99.90
5881;DHT22;2966;52.598;10.928;2022-10-20T12:07:04;11.40;99.90
5881;DHT22;2966;52.598;10.928;2022-10-20T12:09:54;11.50;99.90
5881;DHT22;2966;52.598;10.928;2022-10-20T12:12:28;11.60;99.90
5881;DHT22;2966;52.598;10.928;2022-10-20T12:15:01;11.70;99.90
5881;DHT22;2966;52.598;10.928;2022-10-20T12:17:35;11.80;99.90
5881;DHT22;2966;52.598;10.928;2022-10-20T12:23:52;11.90;99.90
5881;DHT22;2966;52.598;10.928;2022-10-20T12:26:37;12.00;99.90
5881;DHT22;2966;52.598;10.928;2022-10-20T12:38:21;12.20;99.90
5881;DHT22;2966;52.598;10.928;2022-10-20T12:40:52;12.20;99.90
5881;DHT22;2966;52.598;10.928;2022-10-20T12:43:25;12.20;99.90
5881;DHT22;2966;52.598;10.928;2022-10-20T12:45:57;12.30;99.90
5881;DHT22;2966;52.598;10.928;2022-10-20T12:48:26;12.30;99.90
5881;DHT22;2966;52.598;10.928;2022-10-20T12:51:02;12.40;99.90
5881;DHT22;2966;52.598;10.928;2022-10-20T12:53:31;12.40;99.90
5881;DHT22;2966;52.598;10.928;2022-10-20T12:56:04;12.40;99.90
5881;DHT22;2966;52.598;10.928;2022-10-20T12:58:33;12.40;99.90
5881;DHT22;2966;52.598;10.928;2022-10-20T13:01:05;12.40;99.90
5881;DHT22;2966;52.598;10.928;2022-10-20T13:03:42;12.40;99.90
5881;DHT22;2966;52.598;10.928;2022-10-20T13:06:39;12.30;99.90
5881;DHT22;2966;52.598;10.928;2022-10-20T13:09:20;12.30;99.90
5881;DHT22;2966;52.598;10.928;2022-10-20T13:11:59;12.40;99.90
5881;DHT22;2966;52.598;10.928;2022-10-20T13:14:34;12.30;99.90
5881;DHT22;2966;52.598;10.928;2022-10-20T13:17:24;12.30;99.90
5881;DHT22;2966;52.598;10.928;2022-10-20T13:19:56;12.30;99.90
5881;DHT22;2966;52.598;10.928;2022-10-20T13:22:37;12.30;99.90
5881;DHT22;2966;52.598;10.928;2022-10-20T13:25:10;12.30;99.90
5881;DHT22;2966;52.598;10.928;2022-10-20T13:27:38;12.30;99.90
5881;DHT22;2966;52.598;10.928;2022-10-20T13:30:07;12.40;99.90
5881;DHT22;2966;52.598;10.928;2022-10-20T13:32:40;12.30;99.90
5881;DHT22;2966;52.598;10.928;2022-10-20T13:35:17;12.30;99.90
5881;DHT22;2966;52.598;10.928;2022-10-20T13:37:54;12.40;99.90
5881;DHT22;2966;52.598;10.928;2022-10-20T13:40:27;12.40;99.90
5881;DHT22;2966;52.598;10.928;2022-10-20T13:43:11;12.40;99.90
5881;DHT22;2966;52.598;10.928;2022-10-20T13:45:56;12.50;99.90
5881;DHT22;2966;52.598;10.928;2022-10-20T13:48:36;12.50;99.90
5881;DHT22;2966;52.598;10.928;2022-10-20T13:51:12;12.50;99.90
5881;DHT22;2966;52.598;10.928;2022-10-20T13:53:43;12.50;99.90
5881;DHT22;2966;52.598;10.928;2022-10-20T13:56:20;12.60;99.90
5881;DHT22;2966;52.598;10.928;2022-10-20T13:58:57;12.50;99.90
5881;DHT22;2966;52.598;10.928;2022-10-20T14:01:25;12.50;99.90
5881;DHT22;2966;52.598;10.928;2022-10-20T14:03:53;12.50;99.90
5881;DHT22;2966;52.598;10.928;2022-10-20T14:06:34;12.50;99.90
5881;DHT22;2966;52.598;10.928;2022-10-20T14:09:10;12.40;99.90
5881;DHT22;2966;52.598;10.928;2022-10-20T14:11:38;12.30;99.90
5881;DHT22;2966;52.598;10.928;2022-10-20T14:14:11;12.30;99.90
5881;DHT22;2966;52.598;10.928;2022-10-20T14:16:51;12.20;99.90
5881;DHT22;2966;52.598;10.928;2022-10-20T14:19:20;12.10;99.90
5881;DHT22;2966;52.598;10.928;2022-10-20T14:21:54;12.10;99.90
5881;DHT22;2966;52.598;10.928;2022-10-20T14:24:28;12.00;99.90
5881;DHT22;2966;52.598;10.928;2022-10-20T14:26:59;12.00;99.90
5881;DHT22;2966;52.598;10.928;2022-10-20T14:29:29;11.90;99.90
5881;DHT22;2966;52.598;10.928;2022-10-20T14:31:58;11.90;99.90
5881;DHT22;2966;52.598;10.928;2022-10-20T14:34:27;11.90;99.90
5881;DHT22;2966;52.598;10.928;2022-10-20T14:36:56;11.90;99.90
5881;DHT22;2966;52.598;10.928;2022-10-20T14:39:31;11.90;99.90
5881;DHT22;2966;52.598;10.928;2022-10-20T14:42:01;11.90;99.90
5881;DHT22;2966;52.598;10.928;2022-10-20T14:44:28;11.80;99.90
5881;DHT22;2966;52.598;10.928;2022-10-20T14:46:57;11.80;99.90
5881;DHT22;2966;52.598;10.928;2022-10-20T14:49:28;11.80;99.90
5881;DHT22;2966;52.598;10.928;2022-10-20T14:51:58;11.80;99.90
5881;DHT22;2966;52.598;10.928;2022-10-20T14:54:32;11.80;99.90
5881;DHT22;2966;52.598;10.928;2022-10-20T14:57:29;11.70;99.90
5881;DHT22;2966;52.598;10.928;2022-10-20T15:00:21;11.70;99.90
5881;DHT22;2966;52.598;10.928;2022-10-20T15:02:47;11.70;99.90
5881;DHT22;2966;52.598;10.928;2022-10-20T15:05:22;11.60;99.90
5881;DHT22;2966;52.598;10.928;2022-10-20T15:07:51;11.60;99.90
5881;DHT22;2966;52.598;10.928;2022-10-20T15:10:21;11.60;99.90
5881;DHT22;2966;52.598;10.928;2022-10-20T15:12:50;11.60;99.90
5881;DHT22;2966;52.598;10.928;2022-10-20T15:15:20;11.60;99.90
5881;DHT22;2966;52.598;10.928;2022-10-20T15:17:48;11.60;99.90
5881;DHT22;2966;52.598;10.928;2022-10-20T15:20:31;11.60;99.90
5881;DHT22;2966;52.598;10.928;2022-10-20T15:23:06;11.60;99.90
5881;DHT22;2966;52.598;10.928;2022-10-20T15:25:41;11.60;99.90
5881;DHT22;2966;52.598;10.928;2022-10-20T15:31:15;11.60;99.90
5881;DHT22;2966;52.598;10.928;2022-10-20T15:33:43;11.60;99.90
5881;DHT22;2966;52.598;10.928;2022-10-20T15:36:11;11.60;99.90
5881;DHT22;2966;52.598;10.928;2022-10-20T15:38:41;11.60;99.90
5881;DHT22;2966;52.598;10.928;2022-10-20T15:41:11;11.50;99.90
5881;DHT22;2966;52.598;10.928;2022-10-20T15:43:39;11.50;99.90
5881;DHT22;2966;52.598;10.928;2022-10-20T15:46:08;11.50;99.90
5881;DHT22;2966;52.598;10.928;2022-10-20T15:48:35;11.40;99.90
5881;DHT22;2966;52.598;10.928;2022-10-20T15:51:02;11.40;99.90
5881;DHT22;2966;52.598;10.928;2022-10-20T15:53:29;11.40;99.90
5881;DHT22;2966;52.598;10.928;2022-10-20T15:55:57;11.40;99.90
5881;DHT22;2966;52.598;10.928;2022-10-20T15:58:24;11.30;99.90
5881;DHT22;2966;52.598;10.928;2022-10-20T16:00:51;11.40;99.90
5881;DHT22;2966;52.598;10.928;2022-10-20T16:03:18;11.30;99.90
5881;DHT22;2966;52.598;10.928;2022-10-20T16:05:45;11.30;99.90
5881;DHT22;2966;52.598;10.928;2022-10-20T16:08:12;11.30;99.90
5881;DHT22;2966;52.598;10.928;2022-10-20T16:10:39;11.30;99.90
5881;DHT22;2966;52.598;10.928;2022-10-20T16:13:09;11.40;99.90
5881;DHT22;2966;52.598;10.928;2022-10-20T16:15:36;11.40;99.90
5881;DHT22;2966;52.598;10.928;2022-10-20T16:18:03;11.30;99.90
5881;DHT22;2966;52.598;10.928;2022-10-20T16:20:30;11.30;99.90
5881;DHT22;2966;52.598;10.928;2022-10-20T16:22:57;11.30;99.90
5881;DHT22;2966;52.598;10.928;2022-10-20T16:25:24;11.30;99.90
5881;DHT22;2966;52.598;10.928;2022-10-20T16:27:51;11.30;99.90
5881;DHT22;2966;52.598;10.928;2022-10-20T16:30:21;11.30;99.90
5881;DHT22;2966;52.598;10.928;2022-10-20T16:32:51;11.30;99.90
5881;DHT22;2966;52.598;10.928;2022-10-20T16:35:19;11.30;99.90
5881;DHT22;2966;52.598;10.928;2022-10-20T16:37:46;11.20;99.90
5881;DHT22;2966;52.598;10.928;2022-10-20T16:40:12;11.20;99.90
5881;DHT22;2966;52.598;10.928;2022-10-20T16:42:39;11.20;99.90
5881;DHT22;2966;52.598;10.928;2022-10-20T16:45:11;11.10;99.90